Alhaurin de la Torre, Spain
Current Conditions -  °F | °C
As of 2:00 PM on Thursday 25 Dec 2014 (Local Time) from LEMG Reporting Station
Few Clouds Few Clouds  
Wind Chill: 61°   Ceiling: Unl
Heat Index: 61°   Visibility: 6mi
Dew Point: 50°   Wind: 5mph
Humidity: 68%   Direction: 130°SE
Pressure: 30.42"   Gusts: NA
Location:  36.66°N, 4.56°W
Report Text: LEMG 251300Z 13004KT 100V210 9999 FEW030 16/10 Q1030 NOSIG
Loading
Personal Weather Stations






























Interactive Weather Map New forecast layout! Learn more

10-Day Weather Forecast

Advertisements
Track Severe Weather on mobile